sensor_id;sensor_type;location;lat;lon;timestamp;P1;durP1;ratioP1;P2;durP2;ratioP2
42338;SDS011;27993;45.392;10.918;2022-10-31T00:00:55;13.30;;;6.00;;
42338;SDS011;27993;45.392;10.918;2022-10-31T00:03:27;10.75;;;5.28;;
42338;SDS011;27993;45.392;10.918;2022-10-31T00:05:57;26.60;;;5.25;;
42338;SDS011;27993;45.392;10.918;2022-10-31T00:08:28;19.67;;;6.50;;
42338;SDS011;27993;45.392;10.918;2022-10-31T00:10:58;17.33;;;5.67;;
42338;SDS011;27993;45.392;10.918;2022-10-31T00:13:29;16.33;;;6.23;;
42338;SDS011;27993;45.392;10.918;2022-10-31T00:16:01;13.15;;;4.70;;
42338;SDS011;27993;45.392;10.918;2022-10-31T00:18:31;13.83;;;5.53;;
42338;SDS011;27993;45.392;10.918;2022-10-31T00:21:02;12.53;;;6.03;;
42338;SDS011;27993;45.392;10.918;2022-10-31T00:26:04;15.27;;;4.97;;
42338;SDS011;27993;45.392;10.918;2022-10-31T00:28:35;12.25;;;5.35;;
42338;SDS011;27993;45.392;10.918;2022-10-31T00:31:06;10.07;;;5.87;;
42338;SDS011;27993;45.392;10.918;2022-10-31T00:33:39;16.05;;;5.15;;
42338;SDS011;27993;45.392;10.918;2022-10-31T00:36:11;13.95;;;6.20;;
42338;SDS011;27993;45.392;10.918;2022-10-31T00:38:47;13.02;;;5.07;;
42338;SDS011;27993;45.392;10.918;2022-10-31T00:41:18;21.33;;;6.65;;
42338;SDS011;27993;45.392;10.918;2022-10-31T00:43:48;25.53;;;6.53;;
42338;SDS011;27993;45.392;10.918;2022-10-31T00:46:19;17.27;;;6.13;;
42338;SDS011;27993;45.392;10.918;2022-10-31T00:48:50;19.62;;;8.05;;
42338;SDS011;27993;45.392;10.918;2022-10-31T00:51:20;13.25;;;4.95;;
42338;SDS011;27993;45.392;10.918;2022-10-31T00:53:51;12.68;;;5.62;;
42338;SDS011;27993;45.392;10.918;2022-10-31T00:56:22;13.13;;;4.47;;
42338;SDS011;27993;45.392;10.918;2022-10-31T00:58:52;19.60;;;6.43;;
42338;SDS011;27993;45.392;10.918;2022-10-31T01:01:23;13.13;;;5.50;;
42338;SDS011;27993;45.392;10.918;2022-10-31T01:03:53;19.80;;;5.50;;
42338;SDS011;27993;45.392;10.918;2022-10-31T01:06:24;14.87;;;5.73;;
42338;SDS011;27993;45.392;10.918;2022-10-31T01:08:54;20.43;;;5.67;;
42338;SDS011;27993;45.392;10.918;2022-10-31T01:11:25;13.80;;;6.13;;
42338;SDS011;27993;45.392;10.918;2022-10-31T01:13:56;12.53;;;5.93;;
42338;SDS011;27993;45.392;10.918;2022-10-31T01:16:26;13.70;;;6.57;;
42338;SDS011;27993;45.392;10.918;2022-10-31T01:18:59;10.55;;;5.05;;
42338;SDS011;27993;45.392;10.918;2022-10-31T01:21:29;15.93;;;6.67;;
42338;SDS011;27993;45.392;10.918;2022-10-31T01:24:00;13.50;;;5.27;;
42338;SDS011;27993;45.392;10.918;2022-10-31T01:26:33;11.48;;;5.37;;
42338;SDS011;27993;45.392;10.918;2022-10-31T01:29:05;20.70;;;7.33;;
42338;SDS011;27993;45.392;10.918;2022-10-31T01:31:38;12.32;;;6.12;;
42338;SDS011;27993;45.392;10.918;2022-10-31T01:34:12;14.25;;;5.60;;
42338;SDS011;27993;45.392;10.918;2022-10-31T01:36:44;13.13;;;6.37;;
42338;SDS011;27993;45.392;10.918;2022-10-31T01:39:17;18.58;;;6.05;;
42338;SDS011;27993;45.392;10.918;2022-10-31T01:41:50;16.23;;;6.10;;
42338;SDS011;27993;45.392;10.918;2022-10-31T01:47:07;8.37;;;4.80;;
42338;SDS011;27993;45.392;10.918;2022-10-31T01:49:48;10.27;;;5.40;;
42338;SDS011;27993;45.392;10.918;2022-10-31T01:57:50;15.52;;;6.15;;
42338;SDS011;27993;45.392;10.918;2022-10-31T02:00:23;14.15;;;5.97;;
42338;SDS011;27993;45.392;10.918;2022-10-31T02:02:54;18.60;;;5.53;;
42338;SDS011;27993;45.392;10.918;2022-10-31T02:05:26;12.18;;;5.32;;
42338;SDS011;27993;45.392;10.918;2022-10-31T02:08:06;16.70;;;5.30;;
42338;SDS011;27993;45.392;10.918;2022-10-31T02:10:38;22.95;;;5.05;;
42338;SDS011;27993;45.392;10.918;2022-10-31T02:13:10;11.20;;;5.93;;
42338;SDS011;27993;45.392;10.918;2022-10-31T02:15:42;19.25;;;6.05;;
42338;SDS011;27993;45.392;10.918;2022-10-31T02:18:14;16.83;;;5.60;;
42338;SDS011;27993;45.392;10.918;2022-10-31T02:37:37;10.88;;;4.80;;
42338;SDS011;27993;45.392;10.918;2022-10-31T02:40:39;12.35;;;5.62;;
42338;SDS011;27993;45.392;10.918;2022-10-31T02:48:28;13.85;;;5.25;;
42338;SDS011;27993;45.392;10.918;2022-10-31T02:51:05;21.33;;;5.80;;
42338;SDS011;27993;45.392;10.918;2022-10-31T02:53:37;15.27;;;4.97;;
42338;SDS011;27993;45.392;10.918;2022-10-31T02:56:12;20.33;;;6.15;;
42338;SDS011;27993;45.392;10.918;2022-10-31T02:58:46;12.63;;;5.47;;
42338;SDS011;27993;45.392;10.918;2022-10-31T03:04:45;10.48;;;5.18;;
42338;SDS011;27993;45.392;10.918;2022-10-31T03:07:25;11.38;;;5.03;;
42338;SDS011;27993;45.392;10.918;2022-10-31T03:10:20;10.00;;;5.15;;
42338;SDS011;27993;45.392;10.918;2022-10-31T03:16:04;11.73;;;5.28;;
42338;SDS011;27993;45.392;10.918;2022-10-31T03:21:22;10.07;;;4.43;;
42338;SDS011;27993;45.392;10.918;2022-10-31T03:23:57;17.87;;;5.72;;
42338;SDS011;27993;45.392;10.918;2022-10-31T03:26:29;12.52;;;4.57;;
42338;SDS011;27993;45.392;10.918;2022-10-31T03:29:05;18.02;;;5.10;;
42338;SDS011;27993;45.392;10.918;2022-10-31T03:31:39;11.88;;;5.40;;
42338;SDS011;27993;45.392;10.918;2022-10-31T03:34:20;13.85;;;5.37;;
42338;SDS011;27993;45.392;10.918;2022-10-31T03:36:52;16.15;;;5.37;;
42338;SDS011;27993;45.392;10.918;2022-10-31T03:39:25;12.75;;;5.30;;
42338;SDS011;27993;45.392;10.918;2022-10-31T03:42:02;13.38;;;4.87;;
42338;SDS011;27993;45.392;10.918;2022-10-31T03:44:40;7.28;;;4.53;;
42338;SDS011;27993;45.392;10.918;2022-10-31T03:47:16;11.27;;;5.05;;
42338;SDS011;27993;45.392;10.918;2022-10-31T03:49:47;9.17;;;4.40;;
42338;SDS011;27993;45.392;10.918;2022-10-31T03:52:26;19.92;;;4.97;;
42338;SDS011;27993;45.392;10.918;2022-10-31T03:55:08;9.90;;;5.62;;
42338;SDS011;27993;45.392;10.918;2022-10-31T04:00:27;9.20;;;5.70;;
42338;SDS011;27993;45.392;10.918;2022-10-31T04:03:03;14.32;;;4.53;;
42338;SDS011;27993;45.392;10.918;2022-10-31T04:05:40;8.93;;;4.40;;
42338;SDS011;27993;45.392;10.918;2022-10-31T04:08:15;15.18;;;5.60;;
42338;SDS011;27993;45.392;10.918;2022-10-31T04:10:49;13.65;;;5.07;;
42338;SDS011;27993;45.392;10.918;2022-10-31T04:13:23;13.07;;;4.53;;
42338;SDS011;27993;45.392;10.918;2022-10-31T04:15:59;11.20;;;4.70;;
42338;SDS011;27993;45.392;10.918;2022-10-31T04:18:30;12.80;;;5.55;;
42338;SDS011;27993;45.392;10.918;2022-10-31T04:21:05;11.67;;;5.07;;
42338;SDS011;27993;45.392;10.918;2022-10-31T04:23:37;8.50;;;4.60;;
42338;SDS011;27993;45.392;10.918;2022-10-31T04:26:10;9.67;;;5.10;;
42338;SDS011;27993;45.392;10.918;2022-10-31T04:28:41;14.68;;;4.65;;
42338;SDS011;27993;45.392;10.918;2022-10-31T04:31:12;24.00;;;6.00;;
42338;SDS011;27993;45.392;10.918;2022-10-31T04:33:43;17.05;;;5.55;;
42338;SDS011;27993;45.392;10.918;2022-10-31T04:36:14;16.08;;;5.60;;
42338;SDS011;27993;45.392;10.918;2022-10-31T04:38:45;15.03;;;6.47;;
42338;SDS011;27993;45.392;10.918;2022-10-31T04:41:15;20.60;;;5.73;;
42338;SDS011;27993;45.392;10.918;2022-10-31T04:43:46;11.57;;;5.57;;
42338;SDS011;27993;45.392;10.918;2022-10-31T04:46:16;15.33;;;5.27;;
42338;SDS011;27993;45.392;10.918;2022-10-31T04:48:47;15.70;;;5.40;;
42338;SDS011;27993;45.392;10.918;2022-10-31T04:51:18;18.15;;;6.10;;
42338;SDS011;27993;45.392;10.918;2022-10-31T04:53:48;22.33;;;6.40;;
42338;SDS011;27993;45.392;10.918;2022-10-31T04:56:19;25.40;;;6.97;;
42338;SDS011;27993;45.392;10.918;2022-10-31T04:58:50;11.47;;;6.30;;
42338;SDS011;27993;45.392;10.918;2022-10-31T05:01:20;12.43;;;6.13;;
42338;SDS011;27993;45.392;10.918;2022-10-31T05:03:51;17.60;;;6.53;;
42338;SDS011;27993;45.392;10.918;2022-10-31T05:06:21;12.87;;;5.93;;
42338;SDS011;27993;45.392;10.918;2022-10-31T05:08:52;12.93;;;5.87;;
42338;SDS011;27993;45.392;10.918;2022-10-31T05:11:23;20.50;;;6.23;;
42338;SDS011;27993;45.392;10.918;2022-10-31T05:13:53;13.60;;;5.70;;
42338;SDS011;27993;45.392;10.918;2022-10-31T05:16:24;16.00;;;6.00;;
42338;SDS011;27993;45.392;10.918;2022-10-31T05:18:54;17.20;;;6.10;;
42338;SDS011;27993;45.392;10.918;2022-10-31T05:21:25;15.07;;;6.30;;
42338;SDS011;27993;45.392;10.918;2022-10-31T05:23:56;14.10;;;6.20;;
42338;SDS011;27993;45.392;10.918;2022-10-31T05:26:26;16.10;;;6.67;;
42338;SDS011;27993;45.392;10.918;2022-10-31T05:28:57;12.87;;;5.27;;
42338;SDS011;27993;45.392;10.918;2022-10-31T05:31:28;17.80;;;7.33;;
42338;SDS011;27993;45.392;10.918;2022-10-31T05:33:58;14.67;;;6.07;;
42338;SDS011;27993;45.392;10.918;2022-10-31T05:36:29;19.27;;;7.33;;
42338;SDS011;27993;45.392;10.918;2022-10-31T05:38:59;18.93;;;5.77;;
42338;SDS011;27993;45.392;10.918;2022-10-31T05:41:30;21.33;;;7.33;;
42338;SDS011;27993;45.392;10.918;2022-10-31T05:44:00;23.17;;;6.90;;
42338;SDS011;27993;45.392;10.918;2022-10-31T05:46:31;13.70;;;7.00;;
42338;SDS011;27993;45.392;10.918;2022-10-31T05:49:02;14.80;;;7.67;;
42338;SDS011;27993;45.392;10.918;2022-10-31T05:51:32;22.73;;;7.67;;
42338;SDS011;27993;45.392;10.918;2022-10-31T05:54:03;10.30;;;6.07;;
42338;SDS011;27993;45.392;10.918;2022-10-31T05:56:34;17.60;;;6.93;;
42338;SDS011;27993;45.392;10.918;2022-10-31T05:59:04;19.00;;;7.20;;
42338;SDS011;27993;45.392;10.918;2022-10-31T06:01:35;25.70;;;7.73;;
42338;SDS011;27993;45.392;10.918;2022-10-31T06:04:05;25.87;;;7.70;;
42338;SDS011;27993;45.392;10.918;2022-10-31T06:06:36;24.77;;;9.10;;
42338;SDS011;27993;45.392;10.918;2022-10-31T06:09:07;24.43;;;8.07;;
42338;SDS011;27993;45.392;10.918;2022-10-31T06:11:37;24.63;;;10.33;;
42338;SDS011;27993;45.392;10.918;2022-10-31T06:14:08;20.67;;;8.63;;
42338;SDS011;27993;45.392;10.918;2022-10-31T06:16:39;16.85;;;8.80;;
42338;SDS011;27993;45.392;10.918;2022-10-31T06:19:09;17.83;;;8.47;;
42338;SDS011;27993;45.392;10.918;2022-10-31T06:21:40;19.53;;;8.67;;
42338;SDS011;27993;45.392;10.918;2022-10-31T06:24:11;19.57;;;8.77;;
42338;SDS011;27993;45.392;10.918;2022-10-31T06:26:41;22.63;;;9.47;;
42338;SDS011;27993;45.392;10.918;2022-10-31T06:29:12;25.67;;;9.07;;
42338;SDS011;27993;45.392;10.918;2022-10-31T06:31:42;25.27;;;8.37;;
42338;SDS011;27993;45.392;10.918;2022-10-31T06:34:13;26.70;;;9.77;;
42338;SDS011;27993;45.392;10.918;2022-10-31T06:36:45;28.27;;;9.07;;
42338;SDS011;27993;45.392;10.918;2022-10-31T06:39:16;22.55;;;9.55;;
42338;SDS011;27993;45.392;10.918;2022-10-31T06:41:47;18.30;;;10.17;;
42338;SDS011;27993;45.392;10.918;2022-10-31T06:44:18;21.12;;;8.13;;
42338;SDS011;27993;45.392;10.918;2022-10-31T06:46:48;27.62;;;8.43;;
42338;SDS011;27993;45.392;10.918;2022-10-31T06:49:19;30.58;;;11.12;;
42338;SDS011;27993;45.392;10.918;2022-10-31T06:51:50;16.33;;;9.85;;
42338;SDS011;27993;45.392;10.918;2022-10-31T06:54:21;34.47;;;10.35;;
42338;SDS011;27993;45.392;10.918;2022-10-31T06:56:52;35.83;;;11.48;;
42338;SDS011;27993;45.392;10.918;2022-10-31T06:59:22;22.23;;;11.45;;
42338;SDS011;27993;45.392;10.918;2022-10-31T07:01:54;31.62;;;12.25;;
42338;SDS011;27993;45.392;10.918;2022-10-31T07:04:24;34.25;;;12.73;;
42338;SDS011;27993;45.392;10.918;2022-10-31T07:09:25;21.50;;;10.97;;
42338;SDS011;27993;45.392;10.918;2022-10-31T07:14:26;24.73;;;10.03;;
42338;SDS011;27993;45.392;10.918;2022-10-31T07:16:57;26.15;;;10.68;;
42338;SDS011;27993;45.392;10.918;2022-10-31T07:19:28;28.25;;;11.38;;
42338;SDS011;27993;45.392;10.918;2022-10-31T07:21:58;20.27;;;11.18;;
42338;SDS011;27993;45.392;10.918;2022-10-31T07:24:29;20.65;;;10.80;;
42338;SDS011;27993;45.392;10.918;2022-10-31T07:27:00;19.30;;;11.50;;
42338;SDS011;27993;45.392;10.918;2022-10-31T07:29:30;28.02;;;10.98;;
42338;SDS011;27993;45.392;10.918;2022-10-31T07:32:01;25.48;;;10.32;;
42338;SDS011;27993;45.392;10.918;2022-10-31T07:34:32;18.70;;;10.65;;
42338;SDS011;27993;45.392;10.918;2022-10-31T07:37:02;22.60;;;10.93;;
42338;SDS011;27993;45.392;10.918;2022-10-31T07:39:33;25.42;;;9.80;;
42338;SDS011;27993;45.392;10.918;2022-10-31T07:42:03;23.30;;;11.70;;
42338;SDS011;27993;45.392;10.918;2022-10-31T07:44:34;19.20;;;8.77;;
42338;SDS011;27993;45.392;10.918;2022-10-31T07:47:05;17.23;;;11.25;;
42338;SDS011;27993;45.392;10.918;2022-10-31T07:49:35;27.45;;;11.52;;
42338;SDS011;27993;45.392;10.918;2022-10-31T07:52:06;24.12;;;11.10;;
42338;SDS011;27993;45.392;10.918;2022-10-31T07:54:37;20.40;;;10.70;;
42338;SDS011;27993;45.392;10.918;2022-10-31T07:57:07;18.65;;;11.27;;
42338;SDS011;27993;45.392;10.918;2022-10-31T07:59:38;21.00;;;10.25;;
42338;SDS011;27993;45.392;10.918;2022-10-31T08:02:08;16.50;;;9.52;;
42338;SDS011;27993;45.392;10.918;2022-10-31T08:04:39;28.35;;;11.25;;
42338;SDS011;27993;45.392;10.918;2022-10-31T08:07:10;32.10;;;10.32;;
42338;SDS011;27993;45.392;10.918;2022-10-31T08:09:40;18.10;;;9.57;;
42338;SDS011;27993;45.392;10.918;2022-10-31T08:12:11;25.95;;;10.57;;
42338;SDS011;27993;45.392;10.918;2022-10-31T08:14:41;25.35;;;11.38;;
42338;SDS011;27993;45.392;10.918;2022-10-31T08:17:12;21.83;;;14.43;;
42338;SDS011;27993;45.392;10.918;2022-10-31T08:19:43;35.10;;;13.05;;
42338;SDS011;27993;45.392;10.918;2022-10-31T08:22:13;24.83;;;14.20;;
42338;SDS011;27993;45.392;10.918;2022-10-31T08:24:44;27.42;;;13.90;;
42338;SDS011;27993;45.392;10.918;2022-10-31T08:27:14;26.98;;;12.65;;
42338;SDS011;27993;45.392;10.918;2022-10-31T08:29:45;22.50;;;12.27;;
42338;SDS011;27993;45.392;10.918;2022-10-31T08:32:16;26.60;;;12.73;;
42338;SDS011;27993;45.392;10.918;2022-10-31T08:34:46;27.00;;;13.32;;
42338;SDS011;27993;45.392;10.918;2022-10-31T08:37:17;25.02;;;13.02;;
42338;SDS011;27993;45.392;10.918;2022-10-31T08:39:49;23.62;;;14.10;;
42338;SDS011;27993;45.392;10.918;2022-10-31T08:42:20;29.27;;;13.85;;
42338;SDS011;27993;45.392;10.918;2022-10-31T08:44:50;23.30;;;14.00;;
42338;SDS011;27993;45.392;10.918;2022-10-31T08:47:21;22.83;;;13.77;;
42338;SDS011;27993;45.392;10.918;2022-10-31T08:49:52;24.10;;;16.23;;
42338;SDS011;27993;45.392;10.918;2022-10-31T08:52:23;33.10;;;15.70;;
42338;SDS011;27993;45.392;10.918;2022-10-31T08:54:55;35.22;;;15.63;;
42338;SDS011;27993;45.392;10.918;2022-10-31T08:57:25;28.52;;;15.65;;
42338;SDS011;27993;45.392;10.918;2022-10-31T08:59:56;24.02;;;14.60;;
42338;SDS011;27993;45.392;10.918;2022-10-31T09:02:26;23.98;;;15.30;;
42338;SDS011;27993;45.392;10.918;2022-10-31T09:04:57;23.45;;;11.75;;
42338;SDS011;27993;45.392;10.918;2022-10-31T09:07:28;18.10;;;13.15;;
42338;SDS011;27993;45.392;10.918;2022-10-31T09:09:58;25.40;;;13.35;;
42338;SDS011;27993;45.392;10.918;2022-10-31T09:12:29;19.73;;;13.18;;
42338;SDS011;27993;45.392;10.918;2022-10-31T09:14:59;23.20;;;13.45;;
42338;SDS011;27993;45.392;10.918;2022-10-31T09:17:31;31.70;;;14.23;;
42338;SDS011;27993;45.392;10.918;2022-10-31T09:20:02;26.12;;;15.90;;
42338;SDS011;27993;45.392;10.918;2022-10-31T09:22:33;28.35;;;15.73;;
42338;SDS011;27993;45.392;10.918;2022-10-31T09:25:03;22.10;;;14.70;;
42338;SDS011;27993;45.392;10.918;2022-10-31T09:27:34;33.97;;;15.98;;
42338;SDS011;27993;45.392;10.918;2022-10-31T09:30:05;32.03;;;15.73;;
42338;SDS011;27993;45.392;10.918;2022-10-31T09:32:36;43.13;;;19.65;;
42338;SDS011;27993;45.392;10.918;2022-10-31T09:35:07;32.47;;;19.55;;
42338;SDS011;27993;45.392;10.918;2022-10-31T09:37:38;27.92;;;18.02;;
42338;SDS011;27993;45.392;10.918;2022-10-31T09:40:08;32.63;;;18.85;;
42338;SDS011;27993;45.392;10.918;2022-10-31T09:42:54;44.25;;;19.65;;
42338;SDS011;27993;45.392;10.918;2022-10-31T09:45:49;34.85;;;20.10;;
42338;SDS011;27993;45.392;10.918;2022-10-31T09:51:18;40.45;;;18.77;;
42338;SDS011;27993;45.392;10.918;2022-10-31T09:56:27;29.08;;;19.30;;
42338;SDS011;27993;45.392;10.918;2022-10-31T09:59:01;32.22;;;20.10;;
42338;SDS011;27993;45.392;10.918;2022-10-31T10:07:14;33.42;;;22.42;;
42338;SDS011;27993;45.392;10.918;2022-10-31T10:09:52;34.00;;;21.60;;
42338;SDS011;27993;45.392;10.918;2022-10-31T10:29:37;28.30;;;21.83;;
42338;SDS011;27993;45.392;10.918;2022-10-31T10:32:16;40.45;;;23.05;;
42338;SDS011;27993;45.392;10.918;2022-10-31T10:34:58;39.58;;;23.90;;
42338;SDS011;27993;45.392;10.918;2022-10-31T10:37:48;34.55;;;23.73;;
42338;SDS011;27993;45.392;10.918;2022-10-31T10:40:25;55.08;;;25.70;;
42338;SDS011;27993;45.392;10.918;2022-10-31T11:00:16;46.35;;;27.25;;
42338;SDS011;27993;45.392;10.918;2022-10-31T11:02:51;42.28;;;25.35;;
42338;SDS011;27993;45.392;10.918;2022-10-31T11:08:32;32.47;;;23.10;;
42338;SDS011;27993;45.392;10.918;2022-10-31T11:11:08;35.47;;;25.80;;
42338;SDS011;27993;45.392;10.918;2022-10-31T11:14:04;41.17;;;25.00;;
42338;SDS011;27993;45.392;10.918;2022-10-31T11:16:43;40.15;;;25.23;;
42338;SDS011;27993;45.392;10.918;2022-10-31T11:19:19;32.72;;;24.10;;
42338;SDS011;27993;45.392;10.918;2022-10-31T11:21:51;44.20;;;27.70;;
42338;SDS011;27993;45.392;10.918;2022-10-31T11:24:23;45.03;;;26.30;;
42338;SDS011;27993;45.392;10.918;2022-10-31T11:27:05;39.78;;;25.37;;
42338;SDS011;27993;45.392;10.918;2022-10-31T11:29:49;35.92;;;23.77;;
42338;SDS011;27993;45.392;10.918;2022-10-31T11:32:25;42.45;;;22.35;;
42338;SDS011;27993;45.392;10.918;2022-10-31T11:34:58;31.98;;;24.33;;
42338;SDS011;27993;45.392;10.918;2022-10-31T11:37:32;39.63;;;23.12;;
42338;SDS011;27993;45.392;10.918;2022-10-31T11:40:05;50.70;;;23.27;;
42338;SDS011;27993;45.392;10.918;2022-10-31T11:42:38;47.42;;;23.40;;
42338;SDS011;27993;45.392;10.918;2022-10-31T11:45:15;33.25;;;22.55;;
42338;SDS011;27993;45.392;10.918;2022-10-31T11:47:50;39.20;;;21.15;;
42338;SDS011;27993;45.392;10.918;2022-10-31T11:50:23;32.15;;;21.50;;
42338;SDS011;27993;45.392;10.918;2022-10-31T11:52:57;37.20;;;23.73;;
42338;SDS011;27993;45.392;10.918;2022-10-31T11:58:22;38.05;;;25.73;;
42338;SDS011;27993;45.392;10.918;2022-10-31T12:00:55;38.38;;;23.67;;
42338;SDS011;27993;45.392;10.918;2022-10-31T12:06:37;32.00;;;22.17;;
42338;SDS011;27993;45.392;10.918;2022-10-31T12:17:26;40.20;;;19.12;;
42338;SDS011;27993;45.392;10.918;2022-10-31T12:22:52;37.35;;;19.92;;
42338;SDS011;27993;45.392;10.918;2022-10-31T12:28:49;31.15;;;22.65;;
42338;SDS011;27993;45.392;10.918;2022-10-31T12:39:39;37.60;;;25.15;;
42338;SDS011;27993;45.392;10.918;2022-10-31T12:42:32;36.15;;;22.52;;
42338;SDS011;27993;45.392;10.918;2022-10-31T12:48:08;35.10;;;23.27;;
42338;SDS011;27993;45.392;10.918;2022-10-31T12:54:54;45.60;;;22.80;;
42338;SDS011;27993;45.392;10.918;2022-10-31T12:57:35;41.53;;;22.65;;
42338;SDS011;27993;45.392;10.918;2022-10-31T13:00:16;41.40;;;22.40;;
42338;SDS011;27993;45.392;10.918;2022-10-31T13:02:55;40.95;;;22.40;;
42338;SDS011;27993;45.392;10.918;2022-10-31T13:05:31;38.72;;;24.70;;
42338;SDS011;27993;45.392;10.918;2022-10-31T13:08:08;42.80;;;23.27;;
42338;SDS011;27993;45.392;10.918;2022-10-31T13:11:10;36.40;;;22.42;;
42338;SDS011;27993;45.392;10.918;2022-10-31T13:13:45;36.65;;;22.00;;
42338;SDS011;27993;45.392;10.918;2022-10-31T13:16:45;38.20;;;22.20;;
42338;SDS011;27993;45.392;10.918;2022-10-31T13:21:58;41.75;;;22.50;;
42338;SDS011;27993;45.392;10.918;2022-10-31T13:30:23;56.10;;;23.87;;
42338;SDS011;27993;45.392;10.918;2022-10-31T13:41:12;29.00;;;19.87;;
42338;SDS011;27993;45.392;10.918;2022-10-31T13:44:13;37.20;;;19.62;;
42338;SDS011;27993;45.392;10.918;2022-10-31T13:46:49;42.53;;;18.92;;
42338;SDS011;27993;45.392;10.918;2022-10-31T13:52:05;33.33;;;19.27;;
42338;SDS011;27993;45.392;10.918;2022-10-31T13:54:47;65.87;;;23.12;;
42338;SDS011;27993;45.392;10.918;2022-10-31T13:57:38;40.22;;;19.85;;
42338;SDS011;27993;45.392;10.918;2022-10-31T14:02:50;41.17;;;20.05;;
42338;SDS011;27993;45.392;10.918;2022-10-31T14:05:28;39.95;;;19.17;;
42338;SDS011;27993;45.392;10.918;2022-10-31T14:08:02;34.97;;;19.08;;
42338;SDS011;27993;45.392;10.918;2022-10-31T14:10:35;33.25;;;19.98;;
42338;SDS011;27993;45.392;10.918;2022-10-31T14:13:15;34.40;;;18.90;;
42338;SDS011;27993;45.392;10.918;2022-10-31T14:15:56;39.20;;;17.30;;
42338;SDS011;27993;45.392;10.918;2022-10-31T14:18:32;28.75;;;17.83;;
42338;SDS011;27993;45.392;10.918;2022-10-31T14:21:16;42.28;;;17.77;;
42338;SDS011;27993;45.392;10.918;2022-10-31T14:23:58;42.42;;;19.70;;
42338;SDS011;27993;45.392;10.918;2022-10-31T14:31:51;44.88;;;18.62;;
42338;SDS011;27993;45.392;10.918;2022-10-31T14:40:39;33.08;;;15.85;;
42338;SDS011;27993;45.392;10.918;2022-10-31T14:51:56;31.15;;;17.35;;
42338;SDS011;27993;45.392;10.918;2022-10-31T14:54:33;34.08;;;18.08;;
42338;SDS011;27993;45.392;10.918;2022-10-31T14:57:13;49.15;;;19.65;;
42338;SDS011;27993;45.392;10.918;2022-10-31T14:59:50;28.70;;;18.83;;
42338;SDS011;27993;45.392;10.918;2022-10-31T15:02:27;34.05;;;19.92;;
42338;SDS011;27993;45.392;10.918;2022-10-31T15:05:13;35.17;;;19.77;;
42338;SDS011;27993;45.392;10.918;2022-10-31T15:07:55;45.88;;;17.87;;
42338;SDS011;27993;45.392;10.918;2022-10-31T15:10:28;27.23;;;17.75;;
42338;SDS011;27993;45.392;10.918;2022-10-31T15:13:24;43.00;;;20.80;;
42338;SDS011;27993;45.392;10.918;2022-10-31T15:15:55;31.48;;;18.10;;
42338;SDS011;27993;45.392;10.918;2022-10-31T15:18:26;39.45;;;19.48;;
42338;SDS011;27993;45.392;10.918;2022-10-31T15:20:58;40.50;;;19.75;;
42338;SDS011;27993;45.392;10.918;2022-10-31T15:23:29;35.08;;;21.27;;
42338;SDS011;27993;45.392;10.918;2022-10-31T15:26:02;33.95;;;17.67;;
42338;SDS011;27993;45.392;10.918;2022-10-31T15:28:34;35.15;;;18.52;;
42338;SDS011;27993;45.392;10.918;2022-10-31T15:33:46;38.78;;;18.12;;
42338;SDS011;27993;45.392;10.918;2022-10-31T15:36:19;44.53;;;18.95;;
42338;SDS011;27993;45.392;10.918;2022-10-31T15:38:51;41.50;;;24.30;;
42338;SDS011;27993;45.392;10.918;2022-10-31T15:44:03;46.55;;;24.60;;
42338;SDS011;27993;45.392;10.918;2022-10-31T15:46:42;48.35;;;22.45;;
42338;SDS011;27993;45.392;10.918;2022-10-31T15:51:55;30.80;;;17.58;;
42338;SDS011;27993;45.392;10.918;2022-10-31T15:54:29;35.80;;;18.83;;
42338;SDS011;27993;45.392;10.918;2022-10-31T15:57:00;31.17;;;17.12;;
42338;SDS011;27993;45.392;10.918;2022-10-31T16:02:02;45.73;;;19.37;;
42338;SDS011;27993;45.392;10.918;2022-10-31T16:04:49;35.38;;;19.27;;
42338;SDS011;27993;45.392;10.918;2022-10-31T16:07:25;32.30;;;17.77;;
42338;SDS011;27993;45.392;10.918;2022-10-31T16:09:57;31.37;;;17.00;;
42338;SDS011;27993;45.392;10.918;2022-10-31T16:12:34;38.70;;;18.80;;
42338;SDS011;27993;45.392;10.918;2022-10-31T16:15:13;33.72;;;18.77;;
42338;SDS011;27993;45.392;10.918;2022-10-31T16:17:45;34.05;;;17.48;;
42338;SDS011;27993;45.392;10.918;2022-10-31T16:20:20;37.08;;;17.05;;
42338;SDS011;27993;45.392;10.918;2022-10-31T16:22:55;41.58;;;18.58;;
42338;SDS011;27993;45.392;10.918;2022-10-31T16:25:36;42.50;;;18.73;;
42338;SDS011;27993;45.392;10.918;2022-10-31T16:28:19;33.28;;;16.10;;
42338;SDS011;27993;45.392;10.918;2022-10-31T16:30:52;35.13;;;17.05;;
42338;SDS011;27993;45.392;10.918;2022-10-31T16:33:26;42.47;;;17.42;;
42338;SDS011;27993;45.392;10.918;2022-10-31T16:39:07;37.17;;;18.10;;
42338;SDS011;27993;45.392;10.918;2022-10-31T16:41:39;29.60;;;16.67;;
42338;SDS011;27993;45.392;10.918;2022-10-31T16:44:22;33.75;;;18.52;;
42338;SDS011;27993;45.392;10.918;2022-10-31T16:47:08;41.80;;;18.35;;
42338;SDS011;27993;45.392;10.918;2022-10-31T16:49:44;51.55;;;17.70;;
42338;SDS011;27993;45.392;10.918;2022-10-31T16:52:18;47.28;;;19.83;;
42338;SDS011;27993;45.392;10.918;2022-10-31T16:54:49;66.22;;;22.10;;
42338;SDS011;27993;45.392;10.918;2022-10-31T16:57:22;61.78;;;23.50;;
42338;SDS011;27993;45.392;10.918;2022-10-31T16:59:57;63.15;;;20.85;;
42338;SDS011;27993;45.392;10.918;2022-10-31T17:02:28;59.28;;;21.40;;
42338;SDS011;27993;45.392;10.918;2022-10-31T17:04:58;101.85;;;26.73;;
42338;SDS011;27993;45.392;10.918;2022-10-31T17:07:29;73.68;;;23.90;;
42338;SDS011;27993;45.392;10.918;2022-10-31T17:09:59;63.03;;;23.83;;
42338;SDS011;27993;45.392;10.918;2022-10-31T17:12:30;57.08;;;23.38;;
42338;SDS011;27993;45.392;10.918;2022-10-31T17:15:01;73.35;;;23.85;;
42338;SDS011;27993;45.392;10.918;2022-10-31T17:17:32;66.50;;;20.58;;
42338;SDS011;27993;45.392;10.918;2022-10-31T17:20:07;75.45;;;21.92;;
42338;SDS011;27993;45.392;10.918;2022-10-31T17:23:03;58.63;;;20.95;;
42338;SDS011;27993;45.392;10.918;2022-10-31T17:25:34;57.65;;;22.30;;
42338;SDS011;27993;45.392;10.918;2022-10-31T17:30:36;62.40;;;22.83;;
42338;SDS011;27993;45.392;10.918;2022-10-31T17:35:44;66.28;;;22.85;;
42338;SDS011;27993;45.392;10.918;2022-10-31T17:38:15;67.65;;;22.40;;
42338;SDS011;27993;45.392;10.918;2022-10-31T17:40:45;51.85;;;22.80;;
42338;SDS011;27993;45.392;10.918;2022-10-31T17:43:19;66.20;;;23.67;;
42338;SDS011;27993;45.392;10.918;2022-10-31T17:45:50;52.00;;;22.30;;
42338;SDS011;27993;45.392;10.918;2022-10-31T17:48:21;45.15;;;21.45;;
42338;SDS011;27993;45.392;10.918;2022-10-31T17:50:51;53.80;;;22.05;;
42338;SDS011;27993;45.392;10.918;2022-10-31T17:53:22;54.08;;;22.87;;
42338;SDS011;27993;45.392;10.918;2022-10-31T17:55:52;52.33;;;19.87;;
42338;SDS011;27993;45.392;10.918;2022-10-31T17:58:23;53.53;;;22.50;;
42338;SDS011;27993;45.392;10.918;2022-10-31T18:00:54;56.25;;;21.12;;
42338;SDS011;27993;45.392;10.918;2022-10-31T18:03:25;53.35;;;20.23;;
42338;SDS011;27993;45.392;10.918;2022-10-31T18:05:57;55.42;;;20.65;;